Time;durP1;ratioP1;P1;durP2;ratioP2;P2;SDS_P1;SDS_P2;PMS_P1;PMS_P2;Temp;Humidity;BMP_temperature;BMP_pressure;BME280_temperature;BME280_humidity;BME280_pressure;Samples;Min_cycle;Max_cycle;Signal;HPM_P1;HPM_P2
2023/10/06 00:00:50;;;;;;;9.75;6.03;;;29.00;99.90;;;;;;5014616;28;20026;-53
2023/10/06 00:03:16;;;;;;;7.60;5.20;;;29.00;99.90;;;;;;5013224;28;20037;-53
2023/10/06 00:05:42;;;;;;;11.55;6.38;;;29.00;99.90;;;;;;5013878;28;20018;-52
2023/10/06 00:08:15;;;;;;;8.45;5.45;;;29.00;99.90;;;;;;5014342;28;20026;-52
2023/10/06 00:10:44;;;;;;;10.70;6.20;;;29.00;99.90;;;;;;5013884;28;20112;-53
2023/10/06 00:13:18;;;;;;;9.95;5.65;;;29.00;99.90;;;;;;5014203;28;20018;-52
2023/10/06 00:15:45;;;;;;;12.23;6.65;;;29.00;99.90;;;;;;5013759;28;20066;-52
2023/10/06 00:18:19;;;;;;;9.60;6.07;;;29.00;99.90;;;;;;5013881;28;20513;-52
2023/10/06 00:20:48;;;;;;;8.70;5.85;;;29.00;99.90;;;;;;5013710;28;20273;-52
2023/10/06 00:23:23;;;;;;;10.50;6.53;;;29.00;99.90;;;;;;5013746;28;20018;-53
2023/10/06 00:25:58;;;;;;;9.48;6.38;;;29.00;99.90;;;;;;5011057;28;20025;-52
2023/10/06 00:28:26;;;;;;;9.02;5.75;;;29.00;99.90;;;;;;5013746;28;20026;-52
2023/10/06 00:30:57;;;;;;;8.73;5.70;;;29.00;99.90;;;;;;5013487;28;20026;-52
2023/10/06 00:33:32;;;;;;;9.82;5.93;;;29.00;99.90;;;;;;5013563;28;20034;-52
2023/10/06 00:36:16;;;;;;;12.23;6.20;;;29.00;99.90;;;;;;5013335;28;20038;-53
2023/10/06 00:38:47;;;;;;;9.13;7.15;;;29.00;99.90;;;;;;5013579;28;20370;-53
2023/10/06 00:41:16;;;;;;;10.90;6.47;;;29.00;99.90;;;;;;5013402;28;20374;-52
2023/10/06 00:43:43;;;;;;;10.30;5.93;;;28.90;99.90;;;;;;5013378;28;20022;-53
2023/10/06 00:46:14;;;;;;;8.73;6.47;;;28.90;99.90;;;;;;5013514;28;20025;-52
2023/10/06 00:48:42;;;;;;;11.07;6.25;;;28.90;99.90;;;;;;5013620;28;20466;-52
2023/10/06 00:51:13;;;;;;;10.48;5.93;;;28.90;99.90;;;;;;5013454;28;20027;-58
2023/10/06 00:53:40;;;;;;;12.43;6.47;;;28.90;99.90;;;;;;5013335;28;20064;-53
2023/10/06 00:56:15;;;;;;;9.07;6.28;;;28.90;99.90;;;;;;5013197;28;20037;-52
2023/10/06 00:58:41;;;;;;;8.82;6.05;;;28.90;99.90;;;;;;5000190;28;20068;-52
2023/10/06 01:01:12;;;;;;;9.25;6.65;;;28.90;99.90;;;;;;5013882;28;20115;-52
2023/10/06 01:03:41;;;;;;;8.73;6.78;;;28.90;99.90;;;;;;5013078;28;20119;-53
2023/10/06 01:06:13;;;;;;;11.88;5.78;;;28.90;99.90;;;;;;5013261;28;20442;-53
2023/10/06 01:08:52;;;;;;;10.70;6.53;;;28.90;99.90;;;;;;5013077;28;20022;-52
2023/10/06 01:11:20;;;;;;;10.02;6.40;;;28.90;99.90;;;;;;5012870;28;20018;-53
2023/10/06 01:14:21;;;;;;;11.07;6.57;;;28.90;99.90;;;;;;5012584;28;20022;-53
2023/10/06 01:16:38;;;;;;;9.68;6.47;;;28.90;99.90;;;;;;5008849;28;20109;-52
2023/10/06 01:21:55;;;;;;;13.27;6.88;;;28.90;99.90;;;;;;5012967;28;20033;-52
2023/10/06 01:24:26;;;;;;;9.13;6.72;;;28.90;99.90;;;;;;5012595;28;20140;-52
2023/10/06 01:27:10;;;;;;;9.32;6.93;;;28.90;99.90;;;;;;5010452;28;20026;-52
2023/10/06 01:29:36;;;;;;;9.40;6.80;;;28.90;99.90;;;;;;5012625;28;20017;-52
2023/10/06 01:32:05;;;;;;;10.68;7.85;;;28.80;99.90;;;;;;5012418;28;20034;-53
2023/10/06 01:34:38;;;;;;;12.25;8.38;;;28.80;99.90;;;;;;5012325;28;20029;-53
2023/10/06 01:37:07;;;;;;;11.85;7.88;;;28.80;99.90;;;;;;5003721;28;20119;-52
2023/10/06 01:39:36;;;;;;;11.50;7.32;;;28.80;99.90;;;;;;5012339;28;20022;-52
2023/10/06 01:42:17;;;;;;;14.38;8.50;;;28.90;99.90;;;;;;5012418;28;20398;-52
2023/10/06 01:44:43;;;;;;;11.10;7.75;;;28.80;99.90;;;;;;5012205;28;20089;-52
2023/10/06 01:47:11;;;;;;;11.15;7.70;;;28.80;99.90;;;;;;5012671;28;20026;-52
2023/10/06 01:49:37;;;;;;;11.95;8.40;;;28.70;99.90;;;;;;5012337;28;20105;-52
2023/10/06 01:52:07;;;;;;;15.75;9.35;;;28.60;99.90;;;;;;5012401;28;20141;-52
2023/10/06 01:54:36;;;;;;;12.02;7.85;;;28.50;99.90;;;;;;5012209;28;20379;-52
2023/10/06 01:57:10;;;;;;;13.90;8.80;;;28.30;99.90;;;;;;5012079;28;20088;-52
2023/10/06 01:59:36;;;;;;;14.73;8.65;;;28.20;99.90;;;;;;5012330;28;20022;-52
2023/10/06 02:02:02;;;;;;;13.13;8.82;;;28.00;99.90;;;;;;5012624;28;20046;-53
2023/10/06 02:04:39;;;;;;;16.70;9.52;;;27.90;99.90;;;;;;5012154;28;20022;-52
2023/10/06 02:07:09;;;;;;;11.77;8.20;;;27.70;99.90;;;;;;5012056;28;20025;-52
2023/10/06 02:09:36;;;;;;;14.95;9.68;;;27.60;99.90;;;;;;5011715;28;20029;-52
2023/10/06 02:12:03;;;;;;;19.35;9.32;;;27.50;99.90;;;;;;5011982;28;20105;-52
2023/10/06 02:14:29;;;;;;;16.15;9.88;;;27.30;99.90;;;;;;5012263;28;20030;-52
2023/10/06 02:16:55;;;;;;;15.40;8.80;;;27.20;99.90;;;;;;5011945;28;20080;-51
2023/10/06 02:19:21;;;;;;;11.32;8.70;;;27.20;99.90;;;;;;5012074;28;20455;-51
2023/10/06 02:21:51;;;;;;;16.35;9.00;;;27.00;99.90;;;;;;5011882;28;20517;-52
2023/10/06 02:24:17;;;;;;;13.88;9.10;;;26.90;99.90;;;;;;5011828;28;20102;-52
2023/10/06 02:26:44;;;;;;;12.63;8.38;;;26.90;99.90;;;;;;5011915;28;20022;-52
2023/10/06 02:29:22;;;;;;;14.52;9.40;;;26.80;99.90;;;;;;5012019;28;20109;-52
2023/10/06 02:31:51;;;;;;;11.88;8.23;;;26.70;99.90;;;;;;5011818;28;20481;-53
2023/10/06 02:34:29;;;;;;;12.25;8.70;;;26.70;99.90;;;;;;5011734;28;20025;-52
2023/10/06 02:36:56;;;;;;;16.83;9.60;;;26.60;99.90;;;;;;5011909;28;20517;-52
2023/10/06 02:39:26;;;;;;;17.30;9.77;;;26.50;99.90;;;;;;5011802;28;20026;-53
2023/10/06 02:41:57;;;;;;;12.57;8.73;;;26.50;99.90;;;;;;5011724;28;20026;-52
2023/10/06 02:44:24;;;;;;;15.68;9.65;;;26.40;99.90;;;;;;5011754;28;20030;-52
2023/10/06 02:46:53;;;;;;;13.30;8.95;;;26.30;99.90;;;;;;5011773;28;20014;-51
2023/10/06 02:49:31;;;;;;;13.35;9.15;;;26.20;99.90;;;;;;5011759;28;20033;-52
2023/10/06 02:57:38;;;;;;;12.25;9.88;;;26.00;99.90;;;;;;5011597;28;20433;-52
2023/10/06 03:03:02;;;;;;;16.15;9.15;;;25.90;99.90;;;;;;5029753;28;20445;-52
2023/10/06 03:05:39;;;;;;;18.02;10.02;;;25.90;99.90;;;;;;5031304;28;20108;-52
2023/10/06 03:08:11;;;;;;;16.92;9.70;;;25.80;99.90;;;;;;5031379;28;20100;-51
2023/10/06 03:10:44;;;;;;;13.40;9.35;;;25.80;99.90;;;;;;5030109;28;20468;-52
2023/10/06 03:13:31;;;;;;;16.75;10.70;;;25.70;99.90;;;;;;5031465;28;20020;-52
2023/10/06 03:16:01;;;;;;;17.05;9.48;;;25.70;99.90;;;;;;5031096;28;20104;-52
2023/10/06 03:18:28;;;;;;;20.08;10.15;;;25.70;99.90;;;;;;5031146;28;20025;-52
2023/10/06 03:20:59;;;;;;;15.40;10.20;;;25.70;99.90;;;;;;5031449;28;20099;-52
2023/10/06 03:25:57;;;;;;;16.17;10.10;;;25.60;99.90;;;;;;5034537;28;20108;-52
2023/10/06 03:28:31;;;;;;;12.95;9.27;;;25.60;99.90;;;;;;5034676;28;20461;-53
2023/10/06 03:31:02;;;;;;;12.77;9.90;;;25.50;99.90;;;;;;5034365;28;20516;-52
2023/10/06 03:33:29;;;;;;;15.27;8.95;;;25.50;99.90;;;;;;5034505;28;20382;-52
2023/10/06 03:35:57;;;;;;;14.55;10.45;;;25.50;99.90;;;;;;5034338;28;20040;-51
2023/10/06 03:46:03;;;;;;;15.32;9.38;;;25.40;99.90;;;;;;5034522;28;20039;-51
2023/10/06 03:48:29;;;;;;;17.88;11.20;;;25.40;99.90;;;;;;5034249;28;20021;-52
2023/10/06 03:50:57;;;;;;;16.30;9.63;;;25.40;99.90;;;;;;5034277;28;20040;-52
2023/10/06 03:53:29;;;;;;;16.50;10.05;;;25.40;99.90;;;;;;5034171;28;20436;-51
2023/10/06 03:55:57;;;;;;;17.25;10.55;;;25.40;99.90;;;;;;5032600;28;20489;-52
2023/10/06 03:58:28;;;;;;;;;;;25.40;99.90;;;;;;5034435;28;20028;-52
2023/10/06 04:00:54;;;;;;;15.85;10.77;;;25.30;99.90;;;;;;5033331;28;19911;-51
2023/10/06 04:03:21;;;;;;;15.38;10.88;;;25.30;99.90;;;;;;5033812;28;20020;-52
2023/10/06 04:05:51;;;;;;;18.98;11.07;;;25.30;99.90;;;;;;5033749;28;20053;-51
2023/10/06 04:08:20;;;;;;;17.08;9.65;;;25.30;99.90;;;;;;5033800;28;20426;-52
2023/10/06 04:10:57;;;;;;;17.60;10.35;;;25.30;99.90;;;;;;5033730;28;20117;-52
2023/10/06 04:13:26;;;;;;;19.73;10.80;;;25.30;99.90;;;;;;5032786;28;20032;-51
2023/10/06 04:15:53;;;;;;;20.58;10.90;;;25.30;99.90;;;;;;5033388;28;20371;-52
2023/10/06 04:18:22;;;;;;;22.13;11.68;;;25.20;99.90;;;;;;5033638;28;20014;-51
2023/10/06 04:20:52;;;;;;;17.05;10.40;;;25.20;99.90;;;;;;5033414;28;20032;-51
2023/10/06 04:23:22;;;;;;;19.13;12.05;;;25.20;99.90;;;;;;5033585;28;20098;-51
2023/10/06 04:25:54;;;;;;;16.73;11.02;;;25.20;99.90;;;;;;5016035;28;20397;-51
2023/10/06 04:28:22;;;;;;;18.33;10.48;;;25.20;99.90;;;;;;5033430;28;20026;-51
2023/10/06 04:30:49;;;;;;;16.55;10.55;;;25.20;99.90;;;;;;5033228;28;20037;-51
2023/10/06 04:33:18;;;;;;;17.95;10.77;;;25.20;99.90;;;;;;5033047;28;20022;-51
2023/10/06 04:38:30;;;;;;;25.85;13.20;;;25.10;99.90;;;;;;5033565;28;20037;-51
2023/10/06 04:40:56;;;;;;;23.08;12.20;;;25.10;99.90;;;;;;5032997;28;20496;-52
2023/10/06 04:43:26;;;;;;;16.20;9.93;;;25.10;99.90;;;;;;5033225;28;20377;-52
2023/10/06 04:45:51;;;;;;;15.82;10.60;;;25.10;99.90;;;;;;5033083;28;20076;-52
2023/10/06 04:48:21;;;;;;;19.27;11.13;;;25.10;99.90;;;;;;5033021;28;20440;-52
2023/10/06 04:50:50;;;;;;;18.98;11.23;;;25.10;99.90;;;;;;5033075;28;20025;-52
2023/10/06 04:53:16;;;;;;;22.33;10.75;;;25.00;99.90;;;;;;5032843;28;20080;-51
2023/10/06 04:55:43;;;;;;;18.33;12.02;;;25.00;99.90;;;;;;5032827;28;20057;-51
2023/10/06 04:58:10;;;;;;;17.83;11.80;;;25.00;99.90;;;;;;5032914;28;20444;-52
2023/10/06 05:00:36;;;;;;;19.65;13.65;;;25.00;99.90;;;;;;5029425;28;20024;-51
2023/10/06 05:03:06;;;;;;;17.20;11.68;;;25.00;99.90;;;;;;5012934;28;20034;-52
2023/10/06 05:05:37;;;;;;;18.80;11.95;;;25.00;99.90;;;;;;5030697;28;20018;-52
2023/10/06 05:08:04;;;;;;;16.58;13.35;;;25.00;99.90;;;;;;5030455;28;20418;-51
2023/10/06 05:10:31;;;;;;;19.13;12.68;;;25.00;99.90;;;;;;5031792;28;20025;-51
2023/10/06 05:13:02;;;;;;;19.15;12.07;;;25.00;99.90;;;;;;5031335;28;20034;-52
2023/10/06 05:15:30;;;;;;;16.98;11.48;;;25.00;99.90;;;;;;5032313;28;20080;-52
2023/10/06 05:18:00;;;;;;;20.38;12.27;;;25.00;99.90;;;;;;5032500;28;20056;-52
2023/10/06 05:20:29;;;;;;;15.73;12.00;;;25.00;99.90;;;;;;5032420;28;20026;-51
2023/10/06 05:23:07;;;;;;;15.20;10.68;;;25.00;99.90;;;;;;5032413;28;20022;-52
2023/10/06 05:25:34;;;;;;;16.08;11.30;;;25.00;99.90;;;;;;5032523;28;20355;-52
2023/10/06 05:28:00;;;;;;;19.77;11.90;;;24.90;99.90;;;;;;5032175;28;20374;-52
2023/10/06 05:30:27;;;;;;;17.55;11.85;;;24.90;99.90;;;;;;5032253;28;20044;-52
2023/10/06 05:32:57;;;;;;;15.53;11.27;;;24.90;99.90;;;;;;5032159;28;20078;-51
2023/10/06 05:35:24;;;;;;;14.80;11.77;;;24.90;99.90;;;;;;5032138;28;20053;-51
2023/10/06 05:37:50;;;;;;;20.30;11.70;;;24.80;99.90;;;;;;5030670;28;20493;-52
2023/10/06 05:40:16;;;;;;;17.65;11.25;;;24.80;99.90;;;;;;5032183;28;20025;-51
2023/10/06 05:42:49;;;;;;;16.90;11.57;;;24.80;99.90;;;;;;5031897;28;20300;-51
2023/10/06 05:45:18;;;;;;;23.92;11.93;;;24.80;99.90;;;;;;5031540;28;20017;-52
2023/10/06 05:47:50;;;;;;;20.98;11.15;;;24.80;99.90;;;;;;5031995;28;20389;-51
2023/10/06 05:50:29;;;;;;;14.43;11.00;;;24.80;99.90;;;;;;5032104;28;20024;-51
2023/10/06 05:53:02;;;;;;;17.00;12.65;;;24.80;99.90;;;;;;5032291;28;20034;-51
2023/10/06 05:55:30;;;;;;;18.25;11.43;;;24.80;99.90;;;;;;5031793;28;20044;-52
2023/10/06 05:57:56;;;;;;;19.55;12.43;;;24.70;99.90;;;;;;5031798;28;20028;-52
2023/10/06 06:00:27;;;;;;;14.37;11.60;;;24.70;99.90;;;;;;5031856;28;20498;-51
2023/10/06 06:02:58;;;;;;;18.85;12.60;;;24.70;99.90;;;;;;5031735;28;20045;-52
2023/10/06 06:05:30;;;;;;;16.13;11.80;;;24.70;99.90;;;;;;5017757;28;20018;-52
2023/10/06 06:08:00;;;;;;;19.23;12.00;;;24.70;99.90;;;;;;5031798;28;20028;-52
2023/10/06 06:10:29;;;;;;;16.27;11.43;;;24.70;99.90;;;;;;5031566;28;20022;-52
2023/10/06 06:12:56;;;;;;;17.80;13.05;;;24.60;99.90;;;;;;5031713;28;20108;-52
2023/10/06 06:15:23;;;;;;;15.63;12.50;;;24.60;99.90;;;;;;5031566;28;20489;-51
2023/10/06 06:17:50;;;;;;;16.03;11.87;;;24.60;99.90;;;;;;5031917;28;20445;-52
2023/10/06 06:20:20;;;;;;;19.95;12.35;;;24.60;99.90;;;;;;5031753;28;20750;-51
2023/10/06 06:22:55;;;;;;;19.83;12.45;;;24.60;99.90;;;;;;5031618;28;20018;-52
2023/10/06 06:25:24;;;;;;;19.52;12.52;;;24.60;99.90;;;;;;5031671;28;20022;-52
2023/10/06 06:27:50;;;;;;;16.30;12.13;;;24.60;99.90;;;;;;5031387;28;20513;-52
2023/10/06 06:30:18;;;;;;;20.40;11.48;;;24.60;99.90;;;;;;5031504;28;20033;-52
2023/10/06 06:32:50;;;;;;;17.92;11.13;;;24.60;99.90;;;;;;5031424;28;20068;-51
2023/10/06 06:35:25;;;;;;;18.98;11.45;;;24.60;99.90;;;;;;5031559;28;20116;-52
2023/10/06 06:37:59;;;;;;;14.48;11.07;;;24.60;99.90;;;;;;5031273;28;20025;-52
2023/10/06 06:40:26;;;;;;;16.35;10.93;;;24.60;99.90;;;;;;5031487;28;20024;-51
2023/10/06 06:42:52;;;;;;;20.60;10.70;;;24.60;99.90;;;;;;5031313;28;20033;-51
2023/10/06 06:45:19;;;;;;;14.32;10.30;;;24.60;99.90;;;;;;5031514;28;20033;-51
2023/10/06 06:47:46;;;;;;;17.83;10.43;;;24.60;99.90;;;;;;5031300;28;20097;-51
2023/10/06 06:50:17;;;;;;;12.73;10.10;;;24.50;99.90;;;;;;5046537;28;20030;-51
2023/10/06 06:52:43;;;;;;;16.17;10.43;;;24.60;99.90;;;;;;5031307;28;20044;-51
2023/10/06 06:55:13;;;;;;;14.20;9.70;;;24.60;99.90;;;;;;5031094;28;20084;-51
2023/10/06 06:57:48;;;;;;;22.58;10.80;;;24.60;99.90;;;;;;5035436;28;20088;-51
2023/10/06 07:00:21;;;;;;;17.75;10.25;;;24.60;99.90;;;;;;5033755;28;20358;-51
2023/10/06 07:02:50;;;;;;;15.23;9.23;;;24.60;99.90;;;;;;5034862;28;20389;-51
2023/10/06 07:05:18;;;;;;;15.85;10.45;;;24.70;99.90;;;;;;5034716;28;20018;-51
2023/10/06 07:07:45;;;;;;;15.40;9.38;;;24.70;99.90;;;;;;5035202;28;20025;-51
2023/10/06 07:10:15;;;;;;;16.10;9.60;;;24.70;99.90;;;;;;5033705;28;20056;-51
2023/10/06 07:12:43;;;;;;;17.90;9.90;;;24.70;99.90;;;;;;5034897;28;20020;-51
2023/10/06 07:15:14;;;;;;;18.05;9.07;;;24.70;99.90;;;;;;5035073;28;20083;-51
2023/10/06 07:17:45;;;;;;;14.75;9.13;;;24.80;99.90;;;;;;5034946;28;20040;-51
2023/10/06 07:20:27;;;;;;;14.27;8.80;;;24.80;99.90;;;;;;5034779;28;20152;-51
2023/10/06 07:22:55;;;;;;;15.05;9.32;;;24.90;99.90;;;;;;5034815;28;20029;-51
2023/10/06 07:25:24;;;;;;;17.55;9.00;;;24.90;99.90;;;;;;5033394;28;20044;-51
2023/10/06 07:27:55;;;;;;;15.10;9.65;;;25.00;99.90;;;;;;5034564;28;20021;-51
2023/10/06 07:30:25;;;;;;;13.70;9.13;;;25.00;99.90;;;;;;5034422;28;20025;-51
2023/10/06 07:32:54;;;;;;;21.02;9.23;;;25.00;99.90;;;;;;5034484;28;20056;-51
2023/10/06 07:35:40;;;;;;;15.18;9.65;;;25.00;99.90;;;;;;5034432;28;20487;-51
2023/10/06 07:38:06;;;;;;;12.77;8.45;;;25.10;99.90;;;;;;5033307;28;20040;-51
2023/10/06 07:40:32;;;;;;;13.88;9.10;;;25.10;99.90;;;;;;5034357;28;20469;-52
2023/10/06 07:42:58;;;;;;;15.48;8.38;;;25.20;99.90;;;;;;5034038;28;20072;-52
2023/10/06 07:45:26;;;;;;;16.30;9.93;;;25.30;99.90;;;;;;5034371;28;20026;-52
2023/10/06 07:47:54;;;;;;;16.30;9.32;;;25.30;99.90;;;;;;5034197;28;20013;-51
2023/10/06 07:50:20;;;;;;;17.40;9.65;;;25.40;99.90;;;;;;5034331;28;20053;-52
2023/10/06 07:52:46;;;;;;;16.73;9.40;;;25.40;99.90;;;;;;5034294;28;20067;-51
2023/10/06 07:55:13;;;;;;;11.98;8.73;;;25.40;99.90;;;;;;5020310;28;20025;-51
2023/10/06 07:57:47;;;;;;;18.23;8.98;;;25.50;99.90;;;;;;5034365;28;20034;-52
2023/10/06 08:00:32;;;;;;;12.98;9.18;;;25.50;99.90;;;;;;5034164;28;20048;-52
2023/10/06 08:03:00;;;;;;;16.98;10.00;;;25.60;99.90;;;;;;5033775;28;20453;-52
2023/10/06 08:05:26;;;;;;;24.17;11.52;;;25.70;99.90;;;;;;5033864;28;20096;-52
2023/10/06 08:07:52;;;;;;;19.23;10.23;;;25.70;99.90;;;;;;5031990;28;20045;-51
2023/10/06 08:10:18;;;;;;;16.90;9.68;;;25.80;99.90;;;;;;5032486;28;20410;-52
2023/10/06 08:12:53;;;;;;;17.90;10.45;;;25.70;99.90;;;;;;5033865;28;20473;-52
2023/10/06 08:15:22;;;;;;;19.23;10.05;;;25.80;99.90;;;;;;5033653;28;20091;-52
2023/10/06 08:17:51;;;;;;;14.73;9.75;;;25.80;99.90;;;;;;5020077;28;20032;-51
2023/10/06 08:20:17;;;;;;;13.80;9.38;;;25.80;99.90;;;;;;5033685;28;20022;-52
2023/10/06 08:22:47;;;;;;;17.15;10.13;;;25.80;99.90;;;;;;5033502;28;20541;-52
2023/10/06 08:25:14;;;;;;;15.55;10.02;;;25.80;99.90;;;;;;5032291;28;20078;-52
2023/10/06 08:27:44;;;;;;;18.75;10.50;;;25.80;99.90;;;;;;5033599;28;20501;-51
2023/10/06 08:30:16;;;;;;;16.70;9.73;;;25.80;99.90;;;;;;5033781;28;20409;-51
2023/10/06 08:32:47;;;;;;;18.58;10.38;;;25.80;99.90;;;;;;5033266;28;20474;-51
2023/10/06 08:35:14;;;;;;;22.30;11.13;;;25.80;99.90;;;;;;5033287;28;20037;-52
2023/10/06 08:37:43;;;;;;;15.27;9.93;;;25.90;99.90;;;;;;5033581;28;20028;-51
2023/10/06 08:40:16;;;;;;;14.63;9.40;;;25.90;99.90;;;;;;5033698;28;20014;-51
2023/10/06 08:42:48;;;;;;;12.13;8.88;;;25.90;99.90;;;;;;5033135;28;20033;-51
2023/10/06 08:45:21;;;;;;;21.48;9.75;;;25.90;99.90;;;;;;5032016;28;20535;-51
2023/10/06 08:47:52;;;;;;;15.32;8.60;;;26.00;99.90;;;;;;5033098;28;20033;-51
2023/10/06 08:50:24;;;;;;;25.48;9.25;;;26.10;99.90;;;;;;5033229;28;20393;-51
2023/10/06 08:52:51;;;;;;;14.55;8.77;;;26.10;99.90;;;;;;5032840;28;20033;-51
2023/10/06 08:55:18;;;;;;;16.63;8.15;;;26.20;99.90;;;;;;5032880;28;20022;-52
2023/10/06 08:57:50;;;;;;;14.55;7.57;;;26.30;99.90;;;;;;5032946;28;20045;-52
2023/10/06 09:00:26;;;;;;;16.13;8.27;;;26.30;99.90;;;;;;5031510;28;20021;-51
2023/10/06 09:02:54;;;;;;;14.10;7.82;;;26.40;99.90;;;;;;5032727;28;20049;-51
2023/10/06 09:05:23;;;;;;;13.90;8.15;;;26.40;99.90;;;;;;5032490;28;20099;-51
2023/10/06 09:08:12;;;;;;;12.98;7.90;;;26.50;99.90;;;;;;5032734;28;20021;-52
2023/10/06 09:10:48;;;;;;;16.20;7.35;;;26.60;99.90;;;;;;5032857;28;20057;-52
2023/10/06 09:13:17;;;;;;;12.98;6.90;;;26.60;99.90;;;;;;5032842;28;20107;-51
2023/10/06 09:15:54;;;;;;;14.00;7.60;;;26.70;99.90;;;;;;5032419;28;20025;-52
2023/10/06 09:18:20;;;;;;;;;;;26.70;99.90;;;;;;5032232;28;20033;-51
2023/10/06 09:20:51;;;;;;;12.53;7.47;;;26.80;99.90;;;;;;5032296;28;20004;-51
2023/10/06 09:23:34;;;;;;;14.43;6.88;;;26.80;99.90;;;;;;5032525;28;20247;-52
2023/10/06 09:26:01;;;;;;;14.23;7.28;;;26.90;99.90;;;;;;5032143;28;20075;-52
2023/10/06 09:28:28;;;;;;;10.80;6.35;;;27.00;99.90;;;;;;5032306;28;20025;-52
2023/10/06 09:31:00;;;;;;;9.37;6.37;;;27.00;99.90;;;;;;5032222;28;20025;-52
2023/10/06 09:33:35;;;;;;;16.50;6.93;;;27.10;99.90;;;;;;5032231;28;20017;-53
2023/10/06 09:36:11;;;;;;;12.50;7.18;;;27.10;99.90;;;;;;5032067;28;20041;-52
2023/10/06 09:38:38;;;;;;;10.93;6.82;;;27.20;99.90;;;;;;5032580;28;20018;-52
2023/10/06 09:41:05;;;;;;;;;;;27.30;99.90;;;;;;5031216;28;20052;-52
2023/10/06 09:43:35;;;;;;;12.18;7.10;;;27.30;99.90;;;;;;5032149;28;20384;-52
2023/10/06 09:46:11;;;;;;;12.05;6.13;;;27.30;99.90;;;;;;5030575;28;20030;-53
2023/10/06 09:48:39;;;;;;;11.75;6.47;;;27.30;99.90;;;;;;5032300;28;20113;-52
2023/10/06 09:51:07;;;;;;;18.95;7.10;;;27.30;99.90;;;;;;5031910;28;20104;-52
2023/10/06 09:53:43;;;;;;;13.70;7.90;;;27.40;99.90;;;;;;5031993;28;20034;-52
2023/10/06 09:56:12;;;;;;;13.80;7.93;;;27.40;99.90;;;;;;5031979;28;20135;-52
2023/10/06 09:58:43;;;;;;;16.38;8.27;;;27.40;99.90;;;;;;5030805;28;20780;-52
2023/10/06 10:01:10;;;;;;;12.75;7.72;;;27.40;99.90;;;;;;5027268;28;20092;-51
2023/10/06 10:03:40;;;;;;;11.70;7.43;;;27.40;99.90;;;;;;5012286;28;20022;-52
2023/10/06 10:06:06;;;;;;;12.88;6.95;;;27.40;99.90;;;;;;5012210;28;20041;-52
2023/10/06 10:08:36;;;;;;;10.57;7.43;;;27.40;99.90;;;;;;5012010;28;20421;-52
2023/10/06 10:11:16;;;;;;;12.57;7.22;;;27.40;99.90;;;;;;5012081;28;20045;-52
2023/10/06 10:14:11;;;;;;;15.82;7.03;;;27.40;99.90;;;;;;5011810;28;20050;-52
2023/10/06 10:17:13;;;;;;;9.98;6.82;;;27.50;99.90;;;;;;5012213;28;20033;-52
2023/10/06 10:19:43;;;;;;;10.55;6.85;;;27.50;99.90;;;;;;4999811;28;20101;-52
2023/10/06 10:22:13;;;;;;;9.85;6.88;;;27.50;99.90;;;;;;5012176;28;20026;-52
2023/10/06 10:24:40;;;;;;;12.45;6.57;;;27.60;99.90;;;;;;4995227;28;20018;-52
2023/10/06 10:27:13;;;;;;;8.77;7.07;;;27.60;99.90;;;;;;5012157;28;20025;-52
2023/10/06 10:29:41;;;;;;;9.60;6.40;;;27.70;99.90;;;;;;5011943;28;20014;-52
2023/10/06 10:32:11;;;;;;;;;;;27.70;99.90;;;;;;5016508;28;20080;-52
2023/10/06 10:35:13;;;;;;;13.57;6.47;;;27.80;99.90;;;;;;5016101;28;20338;-52
2023/10/06 10:37:57;;;;;;;11.90;6.25;;;27.80;99.90;;;;;;5015744;28;20038;-52
2023/10/06 10:40:25;;;;;;;11.68;7.22;;;27.90;99.90;;;;;;5015847;28;20026;-51
2023/10/06 10:43:00;;;;;;;11.60;5.97;;;28.00;99.90;;;;;;5015556;28;20478;-52
2023/10/06 10:45:43;;;;;;;8.07;6.20;;;28.00;99.90;;;;;;5015713;28;20026;-52
2023/10/06 10:48:14;;;;;;;11.15;5.75;;;28.10;99.90;;;;;;5015549;28;20014;-51
2023/10/06 10:51:06;;;;;;;11.63;6.22;;;28.20;99.90;;;;;;5015994;28;20026;-52
2023/10/06 10:53:35;;;;;;;16.50;6.60;;;28.30;99.90;;;;;;5002064;28;20046;-51
2023/10/06 10:56:01;;;;;;;13.25;6.32;;;28.40;99.90;;;;;;5015253;28;20026;-51
2023/10/06 10:58:45;;;;;;;13.55;6.60;;;28.50;99.90;;;;;;5015258;28;20037;-52
2023/10/06 11:01:31;;;;;;;9.35;5.93;;;28.60;99.90;;;;;;5015586;28;20041;-51
2023/10/06 11:07:01;;;;;;;15.45;6.90;;;28.80;99.90;;;;;;5015021;28;20033;-51
2023/10/06 11:09:39;;;;;;;12.73;6.47;;;28.90;99.90;;;;;;5015202;28;20040;-51
2023/10/06 11:12:19;;;;;;;12.13;6.30;;;29.00;99.90;;;;;;5014888;28;20018;-51
2023/10/06 11:14:46;;;;;;;14.88;6.70;;;29.00;99.90;;;;;;5015236;28;20132;-51
2023/10/06 11:17:12;;;;;;;11.73;6.85;;;29.10;99.90;;;;;;5014783;28;20508;-51
2023/10/06 11:19:39;;;;;;;7.90;5.70;;;29.20;99.90;;;;;;5015097;28;20026;-51
2023/10/06 11:22:13;;;;;;;9.80;6.10;;;29.20;99.90;;;;;;5015222;28;20672;-51
2023/10/06 11:24:40;;;;;;;7.63;5.25;;;29.30;99.90;;;;;;5001940;28;20017;-51
2023/10/06 11:27:21;;;;;;;11.60;5.88;;;29.40;99.90;;;;;;5015259;28;20108;-51
2023/10/06 11:29:47;;;;;;;13.55;5.75;;;29.50;99.90;;;;;;5014666;28;20026;-51
2023/10/06 11:32:13;;;;;;;8.40;5.90;;;29.60;99.90;;;;;;5014866;28;20129;-51
2023/10/06 11:34:44;;;;;;;11.48;5.97;;;29.60;99.90;;;;;;5014887;28;20057;-51
2023/10/06 11:37:10;;;;;;;12.27;5.40;;;29.70;99.90;;;;;;5014979;28;20030;-51
2023/10/06 11:39:37;;;;;;;10.30;5.32;;;29.80;99.90;;;;;;5014897;28;20022;-51
2023/10/06 11:42:29;;;;;;;10.00;5.93;;;29.80;99.90;;;;;;4996224;28;20022;-51
2023/10/06 11:44:57;;;;;;;9.50;5.95;;;29.90;99.90;;;;;;5014390;28;20061;-51
2023/10/06 11:47:43;;;;;;;8.23;5.35;;;29.90;99.90;;;;;;5014364;28;20026;-51
2023/10/06 11:50:21;;;;;;;11.40;6.57;;;29.90;99.90;;;;;;5014644;28;20022;-51
2023/10/06 11:52:48;;;;;;;7.45;5.63;;;29.90;99.90;;;;;;5014127;28;20033;-51
2023/10/06 11:55:22;;;;;;;8.13;5.50;;;30.00;99.90;;;;;;5014203;28;20100;-51
2023/10/06 11:57:51;;;;;;;12.25;5.63;;;30.00;99.90;;;;;;5014382;28;20038;-51
2023/10/06 12:00:18;;;;;;;9.50;4.85;;;30.00;99.90;;;;;;5000568;28;20032;-51
2023/10/06 12:02:51;;;;;;;8.70;5.32;;;30.00;99.90;;;;;;5013793;28;20140;-51
2023/10/06 12:05:18;;;;;;;10.35;6.00;;;30.10;99.90;;;;;;5033621;28;20024;-53
2023/10/06 12:07:51;;;;;;;10.60;5.57;;;30.20;99.90;;;;;;5034204;28;20100;-53
2023/10/06 12:10:20;;;;;;;10.45;5.60;;;30.20;99.90;;;;;;5033847;28;20105;-52
2023/10/06 12:12:47;;;;;;;14.85;5.32;;;30.30;99.90;;;;;;5033729;28;20017;-52
2023/10/06 12:15:14;;;;;;;7.95;5.53;;;30.30;99.90;;;;;;5033669;28;20021;-52
2023/10/06 12:17:41;;;;;;;8.97;5.37;;;30.30;99.90;;;;;;5033724;28;20037;-52
2023/10/06 12:20:13;;;;;;;8.27;5.10;;;30.30;99.90;;;;;;5034079;28;20251;-52
2023/10/06 12:22:45;;;;;;;11.80;5.50;;;30.40;99.90;;;;;;5033664;28;20065;-52
2023/10/06 12:25:22;;;;;;;10.35;5.38;;;30.40;99.90;;;;;;5033556;28;20029;-52
2023/10/06 12:27:48;;;;;;;9.25;5.45;;;30.40;99.90;;;;;;5033358;28;20482;-52
2023/10/06 12:30:14;;;;;;;9.50;5.00;;;30.50;99.90;;;;;;5015805;28;20033;-51
2023/10/06 12:32:47;;;;;;;8.38;5.43;;;30.60;99.90;;;;;;4999510;28;20108;-52
2023/10/06 12:35:18;;;;;;;8.48;4.72;;;30.70;99.90;;;;;;5033347;28;20075;-52
2023/10/06 12:37:48;;;;;;;11.38;5.45;;;30.70;99.90;;;;;;5033130;28;20029;-52
2023/10/06 12:40:16;;;;;;;10.70;4.70;;;30.70;99.90;;;;;;5033275;28;20018;-52
2023/10/06 12:42:45;;;;;;;;;;;30.70;99.90;;;;;;5033487;28;20021;-52
2023/10/06 12:45:17;;;;;;;11.05;4.88;;;30.70;99.90;;;;;;5033367;28;19905;-52
2023/10/06 12:47:52;;;;;;;7.70;4.90;;;30.80;99.90;;;;;;5032988;28;20067;-52
2023/10/06 12:50:20;;;;;;;8.88;4.90;;;30.80;99.90;;;;;;5033022;28;20021;-51
2023/10/06 12:52:58;;;;;;;11.05;6.55;;;30.90;99.90;;;;;;5032699;28;20484;-52
2023/10/06 12:55:28;;;;;;;8.45;5.28;;;30.90;99.90;;;;;;5032648;28;20030;-52
2023/10/06 12:57:54;;;;;;;8.05;4.65;;;30.90;99.90;;;;;;5032646;28;20506;-52
2023/10/06 13:00:21;;;;;;;9.48;4.38;;;31.00;99.90;;;;;;5032912;28;20073;-52
2023/10/06 13:02:48;;;;;;;10.25;5.05;;;31.00;99.90;;;;;;5014516;28;20525;-51
2023/10/06 13:05:18;;;;;;;10.95;4.57;;;31.00;99.90;;;;;;5012733;28;20032;-51
2023/10/06 13:07:46;;;;;;;9.20;5.50;;;31.00;99.90;;;;;;5012863;28;20021;-52
2023/10/06 13:10:15;;;;;;;8.60;4.75;;;31.00;99.90;;;;;;5012837;28;20057;-52
2023/10/06 13:12:41;;;;;;;8.13;4.85;;;31.00;99.90;;;;;;5012891;28;20025;-51
2023/10/06 13:15:09;;;;;;;15.95;5.20;;;31.00;99.90;;;;;;5013297;28;20030;-52
2023/10/06 13:17:36;;;;;;;7.53;4.55;;;31.00;99.90;;;;;;5012413;28;20026;-52
2023/10/06 13:20:07;;;;;;;11.85;4.90;;;31.10;99.90;;;;;;5012690;28;20032;-52
2023/10/06 13:22:35;;;;;;;6.78;5.07;;;31.20;99.90;;;;;;5012429;28;20474;-52